sensor_id;sensor_type;location;lat;lon;timestamp;P1;durP1;ratioP1;P2;durP2;ratioP2
46266;SDS011;31998;48.798;15.066;2023-03-23T00:01:44;1.80;;;1.70;;
46266;SDS011;31998;48.798;15.066;2023-03-23T00:04:09;2.00;;;2.00;;
46266;SDS011;31998;48.798;15.066;2023-03-23T00:06:37;5.33;;;2.50;;
46266;SDS011;31998;48.798;15.066;2023-03-23T00:09:02;2.90;;;2.33;;
46266;SDS011;31998;48.798;15.066;2023-03-23T00:11:29;3.47;;;1.70;;
46266;SDS011;31998;48.798;15.066;2023-03-23T00:13:55;2.07;;;1.97;;
46266;SDS011;31998;48.798;15.066;2023-03-23T00:16:22;7.37;;;1.70;;
46266;SDS011;31998;48.798;15.066;2023-03-23T00:18:55;1.97;;;1.87;;
46266;SDS011;31998;48.798;15.066;2023-03-23T00:21:22;1.60;;;1.60;;
46266;SDS011;31998;48.798;15.066;2023-03-23T00:24:02;1.73;;;1.63;;
46266;SDS011;31998;48.798;15.066;2023-03-23T00:26:28;1.97;;;1.87;;
46266;SDS011;31998;48.798;15.066;2023-03-23T00:28:54;4.30;;;1.70;;
46266;SDS011;31998;48.798;15.066;2023-03-23T00:31:19;1.77;;;1.77;;
46266;SDS011;31998;48.798;15.066;2023-03-23T00:33:45;2.13;;;2.03;;
46266;SDS011;31998;48.798;15.066;2023-03-23T00:36:11;2.40;;;1.90;;
46266;SDS011;31998;48.798;15.066;2023-03-23T00:38:37;1.90;;;1.80;;
46266;SDS011;31998;48.798;15.066;2023-03-23T00:41:02;2.93;;;1.77;;
46266;SDS011;31998;48.798;15.066;2023-03-23T00:43:27;1.60;;;1.53;;
46266;SDS011;31998;48.798;15.066;2023-03-23T00:45:53;7.70;;;2.40;;
46266;SDS011;31998;48.798;15.066;2023-03-23T00:48:19;2.50;;;1.60;;
46266;SDS011;31998;48.798;15.066;2023-03-23T00:50:44;2.00;;;2.00;;
46266;SDS011;31998;48.798;15.066;2023-03-23T00:53:10;1.80;;;1.70;;
46266;SDS011;31998;48.798;15.066;2023-03-23T00:55:35;6.17;;;1.90;;
46266;SDS011;31998;48.798;15.066;2023-03-23T00:58:00;2.20;;;1.87;;
46266;SDS011;31998;48.798;15.066;2023-03-23T01:00:25;1.80;;;1.70;;
46266;SDS011;31998;48.798;15.066;2023-03-23T01:02:52;1.40;;;1.40;;
46266;SDS011;31998;48.798;15.066;2023-03-23T01:05:17;2.17;;;2.03;;
46266;SDS011;31998;48.798;15.066;2023-03-23T01:07:43;2.33;;;2.23;;
46266;SDS011;31998;48.798;15.066;2023-03-23T01:10:09;2.30;;;2.10;;
46266;SDS011;31998;48.798;15.066;2023-03-23T01:12:37;2.27;;;2.17;;
46266;SDS011;31998;48.798;15.066;2023-03-23T01:15:02;2.40;;;2.30;;
46266;SDS011;31998;48.798;15.066;2023-03-23T01:17:27;2.20;;;2.10;;
46266;SDS011;31998;48.798;15.066;2023-03-23T01:19:53;1.50;;;1.40;;
46266;SDS011;31998;48.798;15.066;2023-03-23T01:22:18;2.17;;;1.97;;
46266;SDS011;31998;48.798;15.066;2023-03-23T01:24:43;1.83;;;1.73;;
46266;SDS011;31998;48.798;15.066;2023-03-23T01:27:08;1.57;;;1.47;;
46266;SDS011;31998;48.798;15.066;2023-03-23T01:29:34;2.20;;;2.10;;
46266;SDS011;31998;48.798;15.066;2023-03-23T01:31:59;2.60;;;1.60;;
46266;SDS011;31998;48.798;15.066;2023-03-23T01:34:25;2.33;;;2.10;;
46266;SDS011;31998;48.798;15.066;2023-03-23T01:36:50;3.40;;;1.70;;
46266;SDS011;31998;48.798;15.066;2023-03-23T01:39:15;2.73;;;2.63;;
46266;SDS011;31998;48.798;15.066;2023-03-23T01:41:40;2.03;;;1.93;;
46266;SDS011;31998;48.798;15.066;2023-03-23T01:44:07;3.83;;;2.33;;
46266;SDS011;31998;48.798;15.066;2023-03-23T01:46:33;1.47;;;1.47;;
46266;SDS011;31998;48.798;15.066;2023-03-23T01:49:17;2.10;;;2.00;;
46266;SDS011;31998;48.798;15.066;2023-03-23T01:51:57;2.43;;;2.20;;
46266;SDS011;31998;48.798;15.066;2023-03-23T01:54:24;4.23;;;2.20;;
46266;SDS011;31998;48.798;15.066;2023-03-23T01:56:53;1.90;;;1.90;;
46266;SDS011;31998;48.798;15.066;2023-03-23T01:59:19;3.13;;;1.60;;
46266;SDS011;31998;48.798;15.066;2023-03-23T02:01:46;2.17;;;1.70;;
46266;SDS011;31998;48.798;15.066;2023-03-23T02:04:14;2.43;;;1.43;;
46266;SDS011;31998;48.798;15.066;2023-03-23T02:06:40;6.23;;;1.53;;
46266;SDS011;31998;48.798;15.066;2023-03-23T02:09:06;2.70;;;2.17;;
46266;SDS011;31998;48.798;15.066;2023-03-23T02:11:31;2.03;;;1.93;;
46266;SDS011;31998;48.798;15.066;2023-03-23T02:13:57;1.60;;;1.60;;
46266;SDS011;31998;48.798;15.066;2023-03-23T02:16:28;2.17;;;2.07;;
46266;SDS011;31998;48.798;15.066;2023-03-23T02:18:57;2.30;;;2.20;;
46266;SDS011;31998;48.798;15.066;2023-03-23T02:21:27;1.90;;;1.80;;
46266;SDS011;31998;48.798;15.066;2023-03-23T02:36:59;2.63;;;2.07;;
46266;SDS011;31998;48.798;15.066;2023-03-23T02:39:27;4.13;;;1.90;;
46266;SDS011;31998;48.798;15.066;2023-03-23T02:41:56;1.83;;;1.73;;
46266;SDS011;31998;48.798;15.066;2023-03-23T02:44:23;2.67;;;1.33;;
46266;SDS011;31998;48.798;15.066;2023-03-23T02:46:49;1.40;;;1.40;;
46266;SDS011;31998;48.798;15.066;2023-03-23T02:49:15;1.90;;;1.80;;
46266;SDS011;31998;48.798;15.066;2023-03-23T02:51:40;1.60;;;1.50;;
46266;SDS011;31998;48.798;15.066;2023-03-23T02:54:08;1.73;;;1.73;;
46266;SDS011;31998;48.798;15.066;2023-03-23T02:56:34;1.80;;;1.80;;
46266;SDS011;31998;48.798;15.066;2023-03-23T02:59:00;1.47;;;1.47;;
46266;SDS011;31998;48.798;15.066;2023-03-23T03:03:50;1.67;;;1.57;;
46266;SDS011;31998;48.798;15.066;2023-03-23T03:11:11;1.63;;;1.60;;
46266;SDS011;31998;48.798;15.066;2023-03-23T03:13:44;2.00;;;1.90;;
46266;SDS011;31998;48.798;15.066;2023-03-23T03:16:32;1.97;;;1.97;;
46266;SDS011;31998;48.798;15.066;2023-03-23T03:19:05;1.50;;;1.50;;
46266;SDS011;31998;48.798;15.066;2023-03-23T03:21:33;1.83;;;1.77;;
46266;SDS011;31998;48.798;15.066;2023-03-23T03:24:00;4.50;;;2.03;;
46266;SDS011;31998;48.798;15.066;2023-03-23T03:26:26;1.30;;;1.30;;
46266;SDS011;31998;48.798;15.066;2023-03-23T03:28:52;1.57;;;1.47;;
46266;SDS011;31998;48.798;15.066;2023-03-23T03:31:19;1.60;;;1.60;;
46266;SDS011;31998;48.798;15.066;2023-03-23T03:33:45;3.53;;;1.63;;
46266;SDS011;31998;48.798;15.066;2023-03-23T03:36:14;1.70;;;1.70;;
46266;SDS011;31998;48.798;15.066;2023-03-23T03:38:47;1.77;;;1.77;;
46266;SDS011;31998;48.798;15.066;2023-03-23T03:41:13;2.03;;;1.93;;
46266;SDS011;31998;48.798;15.066;2023-03-23T03:43:38;1.60;;;1.60;;
46266;SDS011;31998;48.798;15.066;2023-03-23T03:46:04;2.07;;;1.73;;
46266;SDS011;31998;48.798;15.066;2023-03-23T03:48:29;1.60;;;1.60;;
46266;SDS011;31998;48.798;15.066;2023-03-23T03:50:54;1.77;;;1.77;;
46266;SDS011;31998;48.798;15.066;2023-03-23T03:53:21;2.30;;;1.77;;
46266;SDS011;31998;48.798;15.066;2023-03-23T03:55:47;2.00;;;2.00;;
46266;SDS011;31998;48.798;15.066;2023-03-23T03:58:14;1.77;;;1.67;;
46266;SDS011;31998;48.798;15.066;2023-03-23T04:00:39;2.60;;;1.60;;
46266;SDS011;31998;48.798;15.066;2023-03-23T04:03:04;1.70;;;1.60;;
46266;SDS011;31998;48.798;15.066;2023-03-23T04:05:30;3.80;;;1.73;;
46266;SDS011;31998;48.798;15.066;2023-03-23T04:07:55;1.60;;;1.53;;
46266;SDS011;31998;48.798;15.066;2023-03-23T04:10:26;1.33;;;1.33;;
46266;SDS011;31998;48.798;15.066;2023-03-23T04:12:51;1.30;;;1.30;;
46266;SDS011;31998;48.798;15.066;2023-03-23T04:15:17;1.73;;;1.63;;
46266;SDS011;31998;48.798;15.066;2023-03-23T04:17:42;1.83;;;1.83;;
46266;SDS011;31998;48.798;15.066;2023-03-23T04:20:08;1.67;;;1.57;;
46266;SDS011;31998;48.798;15.066;2023-03-23T04:22:43;1.47;;;1.47;;
46266;SDS011;31998;48.798;15.066;2023-03-23T04:25:09;1.40;;;1.30;;
46266;SDS011;31998;48.798;15.066;2023-03-23T04:27:37;3.50;;;1.50;;
46266;SDS011;31998;48.798;15.066;2023-03-23T04:30:02;9.37;;;1.40;;
46266;SDS011;31998;48.798;15.066;2023-03-23T04:32:28;1.40;;;1.40;;
46266;SDS011;31998;48.798;15.066;2023-03-23T04:34:56;1.27;;;1.27;;
46266;SDS011;31998;48.798;15.066;2023-03-23T04:37:23;1.40;;;1.40;;
46266;SDS011;31998;48.798;15.066;2023-03-23T04:39:52;1.90;;;1.80;;
46266;SDS011;31998;48.798;15.066;2023-03-23T04:42:25;2.10;;;2.03;;
46266;SDS011;31998;48.798;15.066;2023-03-23T04:44:50;2.03;;;1.93;;
46266;SDS011;31998;48.798;15.066;2023-03-23T04:47:18;1.40;;;1.40;;
46266;SDS011;31998;48.798;15.066;2023-03-23T04:49:44;2.20;;;2.10;;
46266;SDS011;31998;48.798;15.066;2023-03-23T04:52:09;7.93;;;2.87;;
46266;SDS011;31998;48.798;15.066;2023-03-23T04:54:35;2.03;;;1.70;;
46266;SDS011;31998;48.798;15.066;2023-03-23T04:57:00;1.70;;;1.60;;
46266;SDS011;31998;48.798;15.066;2023-03-23T04:59:25;6.20;;;1.90;;
46266;SDS011;31998;48.798;15.066;2023-03-23T05:01:52;1.27;;;1.27;;
46266;SDS011;31998;48.798;15.066;2023-03-23T05:04:18;1.70;;;1.10;;
46266;SDS011;31998;48.798;15.066;2023-03-23T05:06:43;2.93;;;1.80;;
46266;SDS011;31998;48.798;15.066;2023-03-23T05:09:10;1.30;;;1.30;;
46266;SDS011;31998;48.798;15.066;2023-03-23T05:11:35;1.57;;;1.57;;
46266;SDS011;31998;48.798;15.066;2023-03-23T05:14:02;1.30;;;1.30;;
46266;SDS011;31998;48.798;15.066;2023-03-23T05:16:30;2.00;;;1.93;;
46266;SDS011;31998;48.798;15.066;2023-03-23T05:18:55;1.90;;;1.90;;
46266;SDS011;31998;48.798;15.066;2023-03-23T05:21:25;1.77;;;1.77;;
46266;SDS011;31998;48.798;15.066;2023-03-23T05:23:51;1.60;;;1.60;;
46266;SDS011;31998;48.798;15.066;2023-03-23T05:26:19;1.47;;;1.47;;
46266;SDS011;31998;48.798;15.066;2023-03-23T05:28:45;1.07;;;1.07;;
46266;SDS011;31998;48.798;15.066;2023-03-23T05:31:10;1.50;;;1.50;;
46266;SDS011;31998;48.798;15.066;2023-03-23T05:33:35;2.47;;;2.30;;
46266;SDS011;31998;48.798;15.066;2023-03-23T05:36:02;1.33;;;1.30;;
46266;SDS011;31998;48.798;15.066;2023-03-23T05:38:29;3.23;;;1.67;;
46266;SDS011;31998;48.798;15.066;2023-03-23T05:40:57;1.57;;;1.57;;
46266;SDS011;31998;48.798;15.066;2023-03-23T05:43:24;3.60;;;1.60;;
46266;SDS011;31998;48.798;15.066;2023-03-23T05:45:50;1.70;;;1.70;;
46266;SDS011;31998;48.798;15.066;2023-03-23T05:48:15;2.20;;;2.10;;
46266;SDS011;31998;48.798;15.066;2023-03-23T05:50:41;1.77;;;1.70;;
46266;SDS011;31998;48.798;15.066;2023-03-23T05:53:06;1.30;;;1.30;;
46266;SDS011;31998;48.798;15.066;2023-03-23T05:55:31;1.50;;;1.50;;
46266;SDS011;31998;48.798;15.066;2023-03-23T05:57:57;2.00;;;1.90;;
46266;SDS011;31998;48.798;15.066;2023-03-23T06:00:24;1.93;;;1.83;;
46266;SDS011;31998;48.798;15.066;2023-03-23T06:02:49;2.07;;;1.77;;
46266;SDS011;31998;48.798;15.066;2023-03-23T06:05:19;2.20;;;2.10;;
46266;SDS011;31998;48.798;15.066;2023-03-23T06:07:47;3.57;;;2.10;;
46266;SDS011;31998;48.798;15.066;2023-03-23T06:10:12;8.23;;;1.70;;
46266;SDS011;31998;48.798;15.066;2023-03-23T06:12:38;3.07;;;1.70;;
46266;SDS011;31998;48.798;15.066;2023-03-23T06:15:04;2.20;;;2.10;;
46266;SDS011;31998;48.798;15.066;2023-03-23T06:17:34;1.63;;;1.53;;
46266;SDS011;31998;48.798;15.066;2023-03-23T06:20:01;2.17;;;2.13;;
46266;SDS011;31998;48.798;15.066;2023-03-23T06:22:29;2.00;;;1.90;;
46266;SDS011;31998;48.798;15.066;2023-03-23T06:24:54;1.90;;;1.90;;
46266;SDS011;31998;48.798;15.066;2023-03-23T06:27:22;1.90;;;1.80;;
46266;SDS011;31998;48.798;15.066;2023-03-23T06:29:47;2.37;;;2.27;;
46266;SDS011;31998;48.798;15.066;2023-03-23T06:32:13;2.20;;;2.10;;
46266;SDS011;31998;48.798;15.066;2023-03-23T06:34:38;2.30;;;2.20;;
46266;SDS011;31998;48.798;15.066;2023-03-23T06:37:05;3.10;;;2.80;;
46266;SDS011;31998;48.798;15.066;2023-03-23T06:39:30;3.07;;;2.97;;
46266;SDS011;31998;48.798;15.066;2023-03-23T06:41:59;4.20;;;3.07;;
46266;SDS011;31998;48.798;15.066;2023-03-23T06:44:24;3.77;;;2.70;;
46266;SDS011;31998;48.798;15.066;2023-03-23T06:46:52;4.87;;;3.47;;
46266;SDS011;31998;48.798;15.066;2023-03-23T06:49:17;5.13;;;4.70;;
46266;SDS011;31998;48.798;15.066;2023-03-23T06:51:43;4.90;;;4.50;;
46266;SDS011;31998;48.798;15.066;2023-03-23T06:54:08;5.17;;;4.80;;
46266;SDS011;31998;48.798;15.066;2023-03-23T06:56:34;6.73;;;4.67;;
46266;SDS011;31998;48.798;15.066;2023-03-23T06:58:59;6.63;;;5.30;;
46266;SDS011;31998;48.798;15.066;2023-03-23T07:01:24;7.30;;;6.60;;
46266;SDS011;31998;48.798;15.066;2023-03-23T07:03:50;13.73;;;7.20;;
46266;SDS011;31998;48.798;15.066;2023-03-23T07:06:15;13.63;;;7.40;;
46266;SDS011;31998;48.798;15.066;2023-03-23T07:08:41;11.00;;;6.80;;
46266;SDS011;31998;48.798;15.066;2023-03-23T07:11:08;21.13;;;7.53;;
46266;SDS011;31998;48.798;15.066;2023-03-23T07:13:35;19.10;;;8.60;;
46266;SDS011;31998;48.798;15.066;2023-03-23T07:16:03;14.13;;;8.43;;
46266;SDS011;31998;48.798;15.066;2023-03-23T07:18:29;24.90;;;8.77;;
46266;SDS011;31998;48.798;15.066;2023-03-23T07:20:54;14.13;;;7.87;;
46266;SDS011;31998;48.798;15.066;2023-03-23T07:23:20;18.23;;;7.40;;
46266;SDS011;31998;48.798;15.066;2023-03-23T07:25:45;16.00;;;7.43;;
46266;SDS011;31998;48.798;15.066;2023-03-23T07:28:12;17.70;;;7.80;;
46266;SDS011;31998;48.798;15.066;2023-03-23T07:30:40;16.10;;;7.80;;
46266;SDS011;31998;48.798;15.066;2023-03-23T07:33:06;8.63;;;6.47;;
46266;SDS011;31998;48.798;15.066;2023-03-23T07:35:33;16.43;;;7.90;;
46266;SDS011;31998;48.798;15.066;2023-03-23T07:37:58;16.93;;;7.50;;
46266;SDS011;31998;48.798;15.066;2023-03-23T07:40:25;18.97;;;8.03;;
46266;SDS011;31998;48.798;15.066;2023-03-23T07:42:54;28.27;;;6.90;;
46266;SDS011;31998;48.798;15.066;2023-03-23T07:45:20;32.47;;;8.27;;
46266;SDS011;31998;48.798;15.066;2023-03-23T07:47:46;26.70;;;7.10;;
46266;SDS011;31998;48.798;15.066;2023-03-23T07:50:11;36.40;;;7.23;;
46266;SDS011;31998;48.798;15.066;2023-03-23T07:52:37;16.13;;;5.63;;
46266;SDS011;31998;48.798;15.066;2023-03-23T07:55:04;5.23;;;4.70;;
46266;SDS011;31998;48.798;15.066;2023-03-23T07:57:29;9.70;;;4.30;;
46266;SDS011;31998;48.798;15.066;2023-03-23T07:59:55;11.93;;;5.33;;
46266;SDS011;31998;48.798;15.066;2023-03-23T08:02:21;5.90;;;4.00;;
46266;SDS011;31998;48.798;15.066;2023-03-23T08:04:47;11.90;;;4.23;;
46266;SDS011;31998;48.798;15.066;2023-03-23T08:07:12;7.47;;;3.83;;
46266;SDS011;31998;48.798;15.066;2023-03-23T08:09:40;6.40;;;3.70;;
46266;SDS011;31998;48.798;15.066;2023-03-23T08:12:06;4.30;;;3.90;;
46266;SDS011;31998;48.798;15.066;2023-03-23T08:14:31;3.97;;;3.67;;
46266;SDS011;31998;48.798;15.066;2023-03-23T08:16:57;7.20;;;3.70;;
46266;SDS011;31998;48.798;15.066;2023-03-23T08:19:23;3.53;;;3.27;;
46266;SDS011;31998;48.798;15.066;2023-03-23T08:21:48;3.63;;;3.33;;
46266;SDS011;31998;48.798;15.066;2023-03-23T08:24:14;4.13;;;3.50;;
46266;SDS011;31998;48.798;15.066;2023-03-23T08:26:39;3.57;;;3.27;;
46266;SDS011;31998;48.798;15.066;2023-03-23T08:29:04;3.50;;;3.20;;
46266;SDS011;31998;48.798;15.066;2023-03-23T08:31:30;2.90;;;2.70;;
46266;SDS011;31998;48.798;15.066;2023-03-23T08:33:58;2.67;;;2.47;;
46266;SDS011;31998;48.798;15.066;2023-03-23T08:36:23;2.70;;;2.50;;
46266;SDS011;31998;48.798;15.066;2023-03-23T08:38:49;3.27;;;2.80;;
46266;SDS011;31998;48.798;15.066;2023-03-23T08:41:16;4.33;;;3.47;;
46266;SDS011;31998;48.798;15.066;2023-03-23T08:43:42;3.03;;;2.83;;
46266;SDS011;31998;48.798;15.066;2023-03-23T08:46:13;3.10;;;2.90;;
46266;SDS011;31998;48.798;15.066;2023-03-23T08:48:38;2.37;;;2.23;;
46266;SDS011;31998;48.798;15.066;2023-03-23T08:51:04;4.50;;;2.60;;
46266;SDS011;31998;48.798;15.066;2023-03-23T08:53:30;3.17;;;3.00;;
46266;SDS011;31998;48.798;15.066;2023-03-23T08:55:56;3.20;;;3.07;;
46266;SDS011;31998;48.798;15.066;2023-03-23T08:58:21;3.17;;;2.60;;
46266;SDS011;31998;48.798;15.066;2023-03-23T09:00:47;2.60;;;2.50;;
46266;SDS011;31998;48.798;15.066;2023-03-23T09:03:12;8.43;;;2.97;;
46266;SDS011;31998;48.798;15.066;2023-03-23T09:05:38;10.23;;;3.33;;
46266;SDS011;31998;48.798;15.066;2023-03-23T09:08:07;2.90;;;2.77;;
46266;SDS011;31998;48.798;15.066;2023-03-23T09:10:33;2.77;;;2.47;;
46266;SDS011;31998;48.798;15.066;2023-03-23T09:12:58;3.83;;;2.57;;
46266;SDS011;31998;48.798;15.066;2023-03-23T09:15:23;10.33;;;3.20;;
46266;SDS011;31998;48.798;15.066;2023-03-23T09:17:50;15.57;;;3.00;;
46266;SDS011;31998;48.798;15.066;2023-03-23T09:20:17;4.97;;;3.00;;
46266;SDS011;31998;48.798;15.066;2023-03-23T09:22:46;6.73;;;2.70;;
46266;SDS011;31998;48.798;15.066;2023-03-23T09:25:13;2.53;;;2.40;;
46266;SDS011;31998;48.798;15.066;2023-03-23T09:27:39;7.03;;;2.43;;
46266;SDS011;31998;48.798;15.066;2023-03-23T09:30:05;3.13;;;2.63;;
46266;SDS011;31998;48.798;15.066;2023-03-23T09:32:32;4.90;;;2.37;;
46266;SDS011;31998;48.798;15.066;2023-03-23T09:34:57;2.40;;;2.20;;
46266;SDS011;31998;48.798;15.066;2023-03-23T09:37:23;2.40;;;2.20;;
46266;SDS011;31998;48.798;15.066;2023-03-23T09:39:48;2.50;;;2.40;;
46266;SDS011;31998;48.798;15.066;2023-03-23T09:42:33;2.70;;;1.60;;
46266;SDS011;31998;48.798;15.066;2023-03-23T09:47:32;6.97;;;2.13;;
46266;SDS011;31998;48.798;15.066;2023-03-23T09:50:21;2.13;;;2.03;;
46266;SDS011;31998;48.798;15.066;2023-03-23T09:52:47;9.07;;;1.77;;
46266;SDS011;31998;48.798;15.066;2023-03-23T09:55:14;1.63;;;1.57;;
46266;SDS011;31998;48.798;15.066;2023-03-23T09:57:50;2.70;;;2.33;;
46266;SDS011;31998;48.798;15.066;2023-03-23T10:00:23;2.60;;;2.10;;
46266;SDS011;31998;48.798;15.066;2023-03-23T10:05:29;1.93;;;1.83;;
46266;SDS011;31998;48.798;15.066;2023-03-23T10:07:56;3.80;;;1.57;;
46266;SDS011;31998;48.798;15.066;2023-03-23T10:10:22;2.23;;;2.13;;
46266;SDS011;31998;48.798;15.066;2023-03-23T10:13:14;9.73;;;1.60;;
46266;SDS011;31998;48.798;15.066;2023-03-23T10:15:41;10.33;;;2.17;;
46266;SDS011;31998;48.798;15.066;2023-03-23T10:18:15;2.93;;;1.10;;
46266;SDS011;31998;48.798;15.066;2023-03-23T10:23:12;5.30;;;1.57;;
46266;SDS011;31998;48.798;15.066;2023-03-23T10:25:40;6.33;;;1.80;;
46266;SDS011;31998;48.798;15.066;2023-03-23T10:28:13;1.33;;;1.33;;
46266;SDS011;31998;48.798;15.066;2023-03-23T10:30:45;1.20;;;1.20;;
46266;SDS011;31998;48.798;15.066;2023-03-23T10:35:42;7.33;;;1.23;;
46266;SDS011;31998;48.798;15.066;2023-03-23T10:38:14;1.27;;;1.17;;
46266;SDS011;31998;48.798;15.066;2023-03-23T10:40:46;3.33;;;1.20;;
46266;SDS011;31998;48.798;15.066;2023-03-23T10:43:13;1.33;;;1.10;;
46266;SDS011;31998;48.798;15.066;2023-03-23T10:45:39;3.70;;;1.23;;
46266;SDS011;31998;48.798;15.066;2023-03-23T10:50:34;2.30;;;1.03;;
46266;SDS011;31998;48.798;15.066;2023-03-23T10:53:03;2.50;;;0.97;;
46266;SDS011;31998;48.798;15.066;2023-03-23T10:55:37;4.43;;;0.70;;
46266;SDS011;31998;48.798;15.066;2023-03-23T10:58:05;1.20;;;1.10;;
46266;SDS011;31998;48.798;15.066;2023-03-23T11:00:31;2.20;;;1.20;;
46266;SDS011;31998;48.798;15.066;2023-03-23T11:05:26;2.50;;;1.20;;
46266;SDS011;31998;48.798;15.066;2023-03-23T11:07:53;1.20;;;1.10;;
46266;SDS011;31998;48.798;15.066;2023-03-23T11:10:23;1.73;;;1.50;;
46266;SDS011;31998;48.798;15.066;2023-03-23T11:12:49;1.30;;;1.20;;
46266;SDS011;31998;48.798;15.066;2023-03-23T11:15:36;2.67;;;1.43;;
46266;SDS011;31998;48.798;15.066;2023-03-23T11:20:46;0.97;;;0.87;;
46266;SDS011;31998;48.798;15.066;2023-03-23T11:23:18;1.00;;;1.00;;
46266;SDS011;31998;48.798;15.066;2023-03-23T11:25:53;0.90;;;0.80;;
46266;SDS011;31998;48.798;15.066;2023-03-23T11:28:19;1.20;;;1.10;;
46266;SDS011;31998;48.798;15.066;2023-03-23T11:30:45;0.90;;;0.90;;
46266;SDS011;31998;48.798;15.066;2023-03-23T11:33:10;1.67;;;1.57;;
46266;SDS011;31998;48.798;15.066;2023-03-23T11:35:35;5.00;;;1.03;;
46266;SDS011;31998;48.798;15.066;2023-03-23T11:38:01;1.30;;;1.20;;
46266;SDS011;31998;48.798;15.066;2023-03-23T11:40:29;3.97;;;1.00;;
46266;SDS011;31998;48.798;15.066;2023-03-23T11:43:07;2.60;;;2.40;;
46266;SDS011;31998;48.798;15.066;2023-03-23T11:51:00;17.60;;;1.50;;
46266;SDS011;31998;48.798;15.066;2023-03-23T11:56:06;2.00;;;1.90;;
46266;SDS011;31998;48.798;15.066;2023-03-23T11:58:33;1.90;;;1.80;;
46266;SDS011;31998;48.798;15.066;2023-03-23T12:01:12;2.23;;;1.30;;
46266;SDS011;31998;48.798;15.066;2023-03-23T12:03:49;2.60;;;1.50;;
46266;SDS011;31998;48.798;15.066;2023-03-23T12:11:36;2.50;;;0.90;;
46266;SDS011;31998;48.798;15.066;2023-03-23T12:21:55;1.80;;;1.70;;
46266;SDS011;31998;48.798;15.066;2023-03-23T12:34:41;8.10;;;2.10;;
46266;SDS011;31998;48.798;15.066;2023-03-23T12:42:32;2.37;;;2.17;;
46266;SDS011;31998;48.798;15.066;2023-03-23T12:47:40;3.40;;;2.90;;
46266;SDS011;31998;48.798;15.066;2023-03-23T12:50:30;5.10;;;4.60;;
46266;SDS011;31998;48.798;15.066;2023-03-23T12:53:06;3.67;;;1.93;;
46266;SDS011;31998;48.798;15.066;2023-03-23T12:56:17;48.27;;;16.93;;
46266;SDS011;31998;48.798;15.066;2023-03-23T12:58:26;2.17;;;2.07;;
46266;SDS011;31998;48.798;15.066;2023-03-23T13:03:40;3.87;;;3.67;;
46266;SDS011;31998;48.798;15.066;2023-03-23T13:06:16;1.43;;;1.27;;
46266;SDS011;31998;48.798;15.066;2023-03-23T13:08:48;2.40;;;1.20;;
46266;SDS011;31998;48.798;15.066;2023-03-23T13:11:16;4.53;;;1.23;;
46266;SDS011;31998;48.798;15.066;2023-03-23T13:16:16;2.17;;;2.07;;
46266;SDS011;31998;48.798;15.066;2023-03-23T13:18:56;5.90;;;2.40;;
46266;SDS011;31998;48.798;15.066;2023-03-23T13:21:32;4.47;;;2.13;;
46266;SDS011;31998;48.798;15.066;2023-03-23T13:24:01;3.17;;;1.57;;
46266;SDS011;31998;48.798;15.066;2023-03-23T13:26:28;1.87;;;1.77;;
46266;SDS011;31998;48.798;15.066;2023-03-23T13:28:56;1.60;;;1.50;;
46266;SDS011;31998;48.798;15.066;2023-03-23T13:31:42;1.83;;;1.83;;
46266;SDS011;31998;48.798;15.066;2023-03-23T13:36:43;8.00;;;1.93;;
46266;SDS011;31998;48.798;15.066;2023-03-23T13:41:59;2.10;;;2.00;;
46266;SDS011;31998;48.798;15.066;2023-03-23T13:44:38;6.60;;;2.13;;
46266;SDS011;31998;48.798;15.066;2023-03-23T13:47:06;2.30;;;2.10;;
46266;SDS011;31998;48.798;15.066;2023-03-23T13:49:32;3.60;;;2.60;;
46266;SDS011;31998;48.798;15.066;2023-03-23T13:54:30;5.90;;;2.37;;
46266;SDS011;31998;48.798;15.066;2023-03-23T13:56:59;1.80;;;1.70;;
46266;SDS011;31998;48.798;15.066;2023-03-23T14:01:52;23.80;;;9.60;;
46266;SDS011;31998;48.798;15.066;2023-03-23T14:04:18;8.67;;;4.70;;
46266;SDS011;31998;48.798;15.066;2023-03-23T14:06:44;2.57;;;2.47;;
46266;SDS011;31998;48.798;15.066;2023-03-23T14:09:19;3.27;;;2.07;;
46266;SDS011;31998;48.798;15.066;2023-03-23T14:14:22;2.60;;;2.40;;
46266;SDS011;31998;48.798;15.066;2023-03-23T14:16:48;3.00;;;1.80;;
46266;SDS011;31998;48.798;15.066;2023-03-23T14:19:37;1.37;;;1.27;;
46266;SDS011;31998;48.798;15.066;2023-03-23T14:22:00;5.73;;;0.90;;
46266;SDS011;31998;48.798;15.066;2023-03-23T14:24:27;1.30;;;1.20;;
46266;SDS011;31998;48.798;15.066;2023-03-23T14:27:00;5.43;;;1.60;;
46266;SDS011;31998;48.798;15.066;2023-03-23T14:29:26;1.57;;;1.30;;
46266;SDS011;31998;48.798;15.066;2023-03-23T14:31:55;2.93;;;1.80;;
46266;SDS011;31998;48.798;15.066;2023-03-23T14:34:21;2.80;;;1.50;;
46266;SDS011;31998;48.798;15.066;2023-03-23T14:36:47;2.80;;;1.30;;
46266;SDS011;31998;48.798;15.066;2023-03-23T14:41:41;1.67;;;1.57;;
46266;SDS011;31998;48.798;15.066;2023-03-23T14:44:10;2.00;;;1.87;;
46266;SDS011;31998;48.798;15.066;2023-03-23T14:46:37;1.53;;;1.43;;
46266;SDS011;31998;48.798;15.066;2023-03-23T14:49:03;3.87;;;2.37;;
46266;SDS011;31998;48.798;15.066;2023-03-23T14:51:28;2.00;;;1.90;;
46266;SDS011;31998;48.798;15.066;2023-03-23T14:53:54;3.67;;;2.10;;
46266;SDS011;31998;48.798;15.066;2023-03-23T14:56:20;2.43;;;2.23;;
46266;SDS011;31998;48.798;15.066;2023-03-23T14:58:48;6.63;;;3.13;;
46266;SDS011;31998;48.798;15.066;2023-03-23T15:01:24;1.67;;;1.60;;
46266;SDS011;31998;48.798;15.066;2023-03-23T15:04:02;10.33;;;1.77;;
46266;SDS011;31998;48.798;15.066;2023-03-23T15:06:30;1.80;;;1.50;;
46266;SDS011;31998;48.798;15.066;2023-03-23T15:08:56;5.83;;;1.63;;
46266;SDS011;31998;48.798;15.066;2023-03-23T15:11:25;2.27;;;2.10;;
46266;SDS011;31998;48.798;15.066;2023-03-23T15:13:52;6.20;;;2.60;;
46266;SDS011;31998;48.798;15.066;2023-03-23T15:19:10;1.20;;;1.20;;
46266;SDS011;31998;48.798;15.066;2023-03-23T15:21:46;1.90;;;1.80;;
46266;SDS011;31998;48.798;15.066;2023-03-23T15:24:26;5.13;;;1.57;;
46266;SDS011;31998;48.798;15.066;2023-03-23T15:26:52;2.00;;;1.90;;
46266;SDS011;31998;48.798;15.066;2023-03-23T15:34:33;2.47;;;2.27;;
46266;SDS011;31998;48.798;15.066;2023-03-23T15:37:05;2.40;;;2.30;;
46266;SDS011;31998;48.798;15.066;2023-03-23T15:39:31;9.67;;;1.83;;
46266;SDS011;31998;48.798;15.066;2023-03-23T15:41:57;3.73;;;2.90;;
46266;SDS011;31998;48.798;15.066;2023-03-23T15:44:41;5.00;;;2.03;;
46266;SDS011;31998;48.798;15.066;2023-03-23T15:47:16;1.60;;;1.50;;
46266;SDS011;31998;48.798;15.066;2023-03-23T15:49:42;4.03;;;1.70;;
46266;SDS011;31998;48.798;15.066;2023-03-23T15:52:09;1.73;;;1.63;;
46266;SDS011;31998;48.798;15.066;2023-03-23T15:54:34;4.50;;;1.73;;
46266;SDS011;31998;48.798;15.066;2023-03-23T15:56:59;2.30;;;2.13;;
46266;SDS011;31998;48.798;15.066;2023-03-23T15:59:25;6.50;;;5.90;;
46266;SDS011;31998;48.798;15.066;2023-03-23T16:01:50;1.53;;;1.43;;
46266;SDS011;31998;48.798;15.066;2023-03-23T16:04:16;4.43;;;1.93;;
46266;SDS011;31998;48.798;15.066;2023-03-23T16:06:42;2.37;;;2.27;;
46266;SDS011;31998;48.798;15.066;2023-03-23T16:09:12;3.33;;;2.37;;
46266;SDS011;31998;48.798;15.066;2023-03-23T16:11:38;14.03;;;4.87;;
46266;SDS011;31998;48.798;15.066;2023-03-23T16:14:03;9.47;;;4.33;;
46266;SDS011;31998;48.798;15.066;2023-03-23T16:16:40;22.00;;;7.30;;
46266;SDS011;31998;48.798;15.066;2023-03-23T16:19:06;9.27;;;3.23;;
46266;SDS011;31998;48.798;15.066;2023-03-23T16:21:31;8.30;;;2.43;;
46266;SDS011;31998;48.798;15.066;2023-03-23T16:23:56;6.20;;;4.47;;